Terminal Aerodrome Forecast
Issued by NWS

Home | Current Version | Previous Version | Text Only | Print | Product List | Glossary On
Versions: 1 2 3 4 5 6 7 8 9 10 11 12 13 14
466
FTUS43 KMQT 221120
TAFSAW
TAF
KSAW 221120Z 2212/2312 01004KT P6SM SKC
     FM221500 03009KT P6SM SKC
     FM230100 16005KT P6SM SKC
     FM230800 22006KT P6SM SKC=

USA.gov is the U.S. government's official web portal to all federal, state and local government web resources and services.